Date,TemperatureHighF,TemperatureAvgF,TemperatureLowF,DewpointHighF,DewpointAvgF,DewpointLowF,HumidityHigh,HumidityAvg,HumidityLow,PressureMaxIn,PressureMinIn,WindSpeedMaxMPH,WindSpeedAvgMPH,GustSpeedMaxMPH,PrecipitationSumIn
2013-1-1,29,11,-2,29,10,-3,100,96,88,29.65,29.29,32,9,43,0.00
2013-1-2,16,0,-13,15,-1,-15,96,95,92,29.97,29.59,12,2,43,0.00
2013-1-3,7,-4,-15,5,-5,-17,92,92,92,29.97,29.56,10,1,13,0.00
2013-1-4,31,16,1,31,15,-1,100,96,92,29.56,29.32,27,7,40,0.00
2013-1-5,32,19,2,31,17,1,100,93,80,29.94,29.35,30,7,46,0.00
2013-1-6,20,15,8,19,15,7,100,99,96,29.85,29.59,13,5,17,10.28
2013-1-7,25,11,-4,22,10,-4,100,96,88,30.00,29.77,11,2,17,0.00
2013-1-8,40,28,9,38,28,8,100,99,84,30.03,29.77,26,6,36,0.00
2013-1-9,38,29,17,38,29,17,100,100,100,30.03,29.50,26,3,45,0.00
2013-1-10,44,34,21,38,32,21,100,92,80,30.27,29.65,36,7,48,0.00
2013-1-11,31,25,19,31,25,19,100,100,100,30.24,29.74,17,3,26,0.00
2013-1-12,39,35,31,39,35,31,100,100,100,29.77,29.68,5,0,26,0.00
2013-1-13,43,39,37,43,39,37,100,100,100,29.77,29.50,9,0,13,0.00
2013-1-14,46,39,29,46,37,29,100,95,72,29.97,29.35,36,7,48,0.00
2013-1-15,43,28,21,32,26,21,100,93,72,30.09,29.91,16,4,48,0.00
2013-1-16,45,27,18,38,26,18,100,97,72,29.91,29.38,18,2,48,0.00
2013-1-17,34,15,-10,34,14,-11,100,97,88,29.97,29.38,24,8,39,0.00
2013-1-18,15,6,-7,14,5,-8,96,96,96,30.06,29.85,20,5,28,0.00
2013-1-19,22,16,6,22,15,5,100,98,96,29.85,29.35,12,4,28,0.00
2013-1-20,39,24,4,39,23,3,100,97,80,29.65,28.94,47,11,62,0.00
2013-1-21,14,0,-8,11,-1,-9,96,96,96,29.80,29.62,9,2,12,0.00
2013-1-22,18,-2,-14,16,-3,-15,96,96,92,29.83,29.59,20,5,33,0.00
2013-1-23,-3,-15,-25,-4,-15,-26,96,96,96,29.94,29.83,20,6,31,0.00
2013-1-24,4,-7,-17,4,-8,-18,96,96,96,30.06,29.85,26,9,39,0.00
2013-1-25,16,-1,-11,15,-2,-12,96,96,96,30.06,29.83,19,6,39,0.00
2013-1-26,19,1,-19,17,0,-20,96,96,92,30.03,29.83,20,4,39,0.00
2013-1-27,21,4,-13,18,3,-14,96,95,88,30.24,30.03,16,4,31,0.00
2013-1-28,15,9,-3,14,8,-4,100,97,96,30.18,29.74,13,4,31,0.00
2013-1-29,31,19,5,26,17,4,100,92,80,29.91,29.56,13,3,31,0.00
2013-1-30,46,38,26,46,38,26,100,100,100,29.56,28.88,11,1,31,0.00
2013-1-31,52,40,19,51,39,17,100,96,80,29.00,28.47,60,14,80,0.00
2013-3-28,43,41,40,16,14,12,38,33,28,29.74,29.71,9,4,12,0.00
2013-3-29,52,42,34,17,8,-1,42,26,19,29.77,29.71,20,5,26,0.00
2013-3-30,59,38,22,13,2,-8,40,22,17,29.83,29.77,22,3,29,0.00
2013-3-31,62,35,22,37,5,-6,83,31,17,29.77,29.35,21,2,28,0.00
2013-4-1,49,38,23,39,16,-10,93,49,18,29.47,29.18,45,10,60,0.00
2013-4-2,30,24,14,-6,-10,-16,26,22,20,29.56,29.44,36,13,47,0.00
2013-4-3,41,29,22,0,-7,-11,22,21,18,29.85,29.56,38,13,50,0.00
2013-4-4,49,35,23,15,-1,-10,40,22,18,29.91,29.59,36,11,47,0.00
2013-4-5,52,36,24,31,9,-9,89,37,18,29.77,29.47,26,8,34,0.00
2013-4-6,44,28,14,2,-7,-17,24,21,18,30.00,29.77,19,6,26,0.04
2013-4-7,55,39,29,40,7,-6,87,30,18,29.94,29.35,20,4,26,0.00
2013-4-8,59,42,36,18,10,3,44,27,17,29.88,29.56,16,4,21,0.91
2013-4-9,60,41,34,33,19,8,87,45,17,29.74,29.53,19,6,26,0.47
2013-4-10,61,46,34,28,12,-3,63,26,17,29.74,29.62,12,4,17,0.08
2013-4-11,48,33,26,7,-4,-9,21,20,17,29.97,29.71,15,5,20,0.00
2013-4-12,34,31,28,32,10,-7,95,47,20,29.97,29.50,22,8,29,0.00
2013-4-13,48,39,34,38,27,12,98,68,27,29.53,29.44,15,3,20,0.43
2013-4-14,54,41,29,34,16,4,86,43,18,29.91,29.53,22,6,30,0.16
2013-4-15,60,43,26,32,16,7,95,42,17,30.06,29.85,16,3,21,0.00
2013-4-16,57,47,39,53,25,5,94,47,19,29.85,29.53,19,4,26,0.39
2013-4-17,65,47,35,17,8,-2,32,20,15,30.09,29.80,18,5,25,0.00
2013-4-18,60,44,35,34,9,-3,73,25,17,30.12,29.44,15,5,20,0.04
2013-4-19,72,59,45,45,25,14,81,30,16,29.47,29.06,45,7,60,0.35
2013-4-20,51,42,32,34,11,-5,64,28,18,29.97,29.32,41,12,54,0.00
2013-4-21,57,37,25,12,0,-9,37,20,16,30.42,29.97,20,5,26,0.00
2013-4-22,63,43,23,16,8,-2,58,26,16,30.45,30.18,19,4,26,0.00
2013-4-23,64,49,30,16,8,-4,30,19,16,30.18,29.80,19,6,26,0.00
2013-4-24,75,52,35,51,20,10,87,34,13,29.80,29.23,23,4,31,0.00
2013-4-25,61,45,35,44,12,1,64,27,16,30.00,29.23,39,10,51,0.00
2013-4-26,62,43,31,26,9,0,74,26,16,30.18,30.00,16,3,21,0.00
2013-4-27,68,48,28,34,18,6,90,41,15,30.15,30.00,16,3,22,0.00
2013-4-28,78,55,33,34,19,9,89,32,13,30.03,29.83,16,2,22,0.00
2013-4-29,74,58,41,22,16,7,41,20,14,29.85,29.77,22,3,29,0.00
2013-4-30,83,62,52,42,23,15,65,25,12,29.97,29.85,20,1,26,0.00
2013-5-1,88,67,49,42,25,13,68,24,11,30.12,29.97,12,2,17,0.00
2013-5-2,86,65,51,29,21,13,39,20,12,30.15,30.06,15,4,20,0.00
2013-5-3,82,60,43,24,17,11,38,20,12,30.21,30.03,15,5,20,0.00
2013-5-4,86,64,46,30,18,10,30,18,11,30.06,29.88,14,2,19,0.00
2013-5-5,90,67,43,32,23,12,54,22,11,29.91,29.80,15,2,20,0.00
2013-5-6,89,68,46,32,23,11,50,21,12,29.85,29.71,23,5,31,0.00
2013-5-7,92,69,48,32,20,8,28,16,12,29.80,29.71,24,4,32,0.00
2013-5-8,91,70,48,32,23,12,32,17,12,29.83,29.68,20,4,26,0.00
2013-5-9,92,71,61,61,39,18,91,43,12,29.71,29.53,16,2,21,0.00
2013-5-10,79,61,48,43,21,11,80,23,13,29.74,29.50,15,3,20,0.00
2013-5-11,71,56,50,57,39,21,94,60,25,29.50,29.26,26,5,34,0.00
2013-5-12,63,52,39,47,22,5,82,35,16,29.38,29.29,34,9,46,0.79
2013-5-13,55,43,34,15,8,2,39,25,18,29.74,29.38,31,10,41,0.00
2013-5-14,69,47,27,30,14,2,88,33,15,29.83,29.68,16,4,22,0.00
2013-5-15,67,47,32,50,20,5,98,41,15,29.71,29.23,25,3,34,0.04
2013-5-16,64,54,47,52,27,10,98,46,16,29.62,29.26,26,6,35,0.00
2013-5-17,75,55,39,43,23,13,89,35,13,29.91,29.62,12,2,17,0.00
2013-5-18,82,60,42,47,26,11,88,37,12,30.03,29.91,15,2,20,0.00
2013-5-19,73,58,43,55,27,12,89,36,14,30.00,29.71,15,3,20,0.04
2013-5-20,88,68,58,60,37,18,97,43,12,29.71,29.65,16,2,22,0.08
2013-5-21,75,61,57,56,39,18,90,53,14,29.74,29.53,15,3,20,0.35
2013-5-22,79,62,56,60,41,24,95,51,15,29.56,29.35,10,1,13,0.12
2013-5-23,80,67,53,72,52,33,98,67,20,29.50,29.35,16,3,22,0.94
2013-5-24,57,50,46,44,27,11,83,46,17,29.80,29.50,11,1,15,0.31
2013-5-25,54,48,45,41,15,6,86,30,18,29.83,29.74,15,2,20,0.24
2013-5-26,67,49,40,43,29,10,91,55,15,29.77,29.65,14,2,19,0.75
2013-5-27,80,58,39,41,21,7,98,32,13,29.85,29.74,28,4,38,0.00
2013-5-28,81,61,38,44,23,13,88,31,12,29.91,29.77,16,2,22,0.00
2013-5-29,69,61,55,63,45,19,91,60,22,29.77,29.56,16,2,21,0.24
2013-5-30,87,73,63,65,43,25,98,45,13,29.77,29.62,19,5,26,0.00
2013-5-31,96,79,68,60,40,26,78,31,11,29.71,29.56,23,6,31,0.00
2013-6-1,92,77,68,71,40,28,98,33,12,29.62,29.44,23,5,31,0.16
2013-6-2,86,74,66,71,52,25,96,57,14,29.47,29.29,29,5,38,0.43
2013-6-3,69,62,54,44,26,14,57,27,15,29.53,29.41,30,8,40,0.00
2013-6-4,76,58,48,26,16,12,37,20,13,29.77,29.53,22,7,29,0.00
2013-6-7,62,58,56,55,44,27,95,65,28,29.74,29.65,12,3,17,0.08
2013-6-8,68,60,56,61,50,27,98,76,22,29.71,29.56,9,0,12,0.31
2013-6-9,89,69,55,61,39,18,98,46,12,29.91,29.71,18,3,25,0.31
2013-6-10,86,68,52,57,34,18,94,41,13,29.91,29.68,13,2,17,0.00
2013-6-11,65,60,59,59,54,26,96,83,23,29.68,29.41,16,3,22,1.50
2013-6-12,82,64,54,58,40,18,95,52,12,29.56,29.44,17,2,23,0.04
2013-6-13,84,66,50,58,34,17,97,43,12,29.53,29.41,11,1,15,0.00
2013-6-14,93,71,53,52,34,11,94,36,12,29.59,29.41,19,1,26,0.00
2013-6-15,81,65,47,29,19,10,43,18,12,29.65,29.53,26,7,34,0.00
2013-6-16,68,58,50,55,40,18,90,58,17,29.56,29.44,9,1,12,0.39
2013-6-17,77,62,50,59,36,15,93,46,14,29.65,29.44,22,4,30,0.00
2013-6-18,80,60,46,50,28,9,92,39,12,29.74,29.65,16,1,22,0.00
2013-6-19,82,61,40,37,22,13,86,28,12,29.88,29.74,13,2,17,0.00
2013-6-20,82,64,46,46,25,16,88,28,12,29.94,29.88,24,4,32,0.00
2013-6-21,89,72,57,31,25,18,33,18,13,29.94,29.85,19,4,26,0.00
2013-6-22,70,66,64,66,52,28,94,64,24,29.91,29.80,9,0,12,0.39
2013-6-23,86,74,68,69,51,28,97,55,13,29.83,29.62,12,1,16,0.20
2013-6-24,92,76,68,73,54,27,98,57,12,29.65,29.50,30,5,39,0.63
2013-6-25,89,76,68,67,50,32,89,47,16,29.56,29.41,19,6,26,0.00
2013-6-26,75,68,60,70,50,30,98,61,21,29.50,29.41,15,1,20,0.16
2013-6-27,87,68,59,59,43,27,85,48,13,29.53,29.47,9,0,12,0.00
2013-6-28,62,60,57,61,53,35,98,81,41,29.53,29.18,11,2,15,1.61
2013-6-29,84,69,61,67,43,24,98,51,14,29.35,29.21,14,2,19,0.00
2013-6-30,85,70,60,63,38,23,98,39,14,29.68,29.35,16,4,22,0.00
2013-7-1,87,69,58,60,34,16,92,38,12,29.85,29.68,9,1,12,0.00
2013-7-2,79,64,60,45,25,17,52,24,15,29.88,29.83,14,1,19,0.00
2013-7-3,89,73,63,54,35,25,61,29,13,29.88,29.83,17,2,23,0.00
2013-7-4,93,78,66,72,50,29,97,49,12,29.88,29.74,22,3,29,0.12
2013-7-5,88,75,72,72,61,34,98,71,16,29.83,29.77,16,3,21,0.00
2013-7-7,93,76,68,66,44,27,90,40,12,29.68,29.62,20,5,26,0.04
2013-7-8,91,74,64,67,31,20,90,24,12,29.77,29.68,11,1,15,0.00
2013-7-9,98,76,63,48,33,23,46,24,11,29.80,29.65,9,1,12,0.00
2013-7-10,89,75,68,70,50,28,87,49,15,29.65,29.32,25,3,34,0.12
2013-7-11,92,74,58,66,38,19,92,37,12,29.80,29.38,13,1,17,0.00
2013-7-12,84,61,52,52,40,22,92,57,14,29.91,29.80,6,0,8,0.00
2013-7-14,95,81,70,43,33,27,38,19,11,29.97,29.91,11,2,14,0.00
2013-7-15,103,83,69,68,40,25,87,30,9,29.91,29.83,15,4,20,0.00
2013-7-16,103,84,67,59,37,28,73,22,9,29.94,29.85,16,1,21,0.00
2013-7-17,99,81,71,69,46,30,91,35,11,29.85,29.65,23,5,31,0.00
2013-7-18,96,79,71,73,53,29,98,54,11,29.74,29.59,18,3,24,0.00
2013-7-19,96,77,70,72,62,31,93,68,11,29.59,29.23,53,6,71,0.91
2013-7-22,87,72,61,32,26,16,34,19,11,29.71,29.56,9,2,12,0.00
2013-7-23,92,72,60,67,39,28,93,36,12,29.56,29.21,18,2,25,0.28
2013-7-24,71,63,48,67,39,12,93,47,14,29.80,29.23,19,6,26,0.04
2013-7-25,86,62,44,51,33,18,98,51,11,29.91,29.80,9,1,12,0.00
2013-7-26,92,65,50,58,39,22,96,54,12,29.85,29.77,11,1,14,0.00
2013-7-27,82,81,81,28,28,27,14,14,14,29.68,29.65,9,1,12,0.00
2013-7-28,81,72,68,75,63,28,100,86,14,29.65,29.59,9,2,17,15.04
2013-7-29,82,69,62,71,65,58,100,88,56,29.77,29.65,19,4,26,0.16
2013-7-30,81,70,61,65,62,60,100,80,56,29.80,29.77,19,6,32,0.00
2013-7-31,87,70,59,69,63,55,100,80,52,29.83,29.71,18,4,29,0.00
2013-8-1,86,70,63,76,68,61,100,94,52,29.71,29.47,20,2,29,0.51
2013-8-2,83,71,64,75,66,59,100,87,56,29.50,29.47,22,4,35,0.04
2013-8-3,80,68,62,75,65,60,100,91,60,29.53,29.44,20,6,38,0.20
2013-8-4,83,65,57,69,60,53,100,87,52,29.68,29.50,20,4,33,0.00
2013-8-5,83,63,47,61,54,47,100,77,44,29.74,29.68,16,3,25,0.00
2013-8-6,89,69,53,69,60,52,100,77,48,29.80,29.74,16,3,21,0.00
2013-8-7,86,70,54,71,63,54,100,80,52,29.83,29.62,16,3,25,0.00
2013-8-8,90,75,67,77,69,64,100,85,52,29.68,29.59,23,4,31,0.79
2013-8-9,96,74,66,77,70,63,100,89,48,29.65,29.44,10,1,20,0.00
2013-8-10,82,67,58,68,58,50,100,76,48,29.71,29.47,20,7,44,0.00
2013-8-11,83,68,53,66,60,53,100,80,48,29.74,29.65,22,6,39,0.00
2013-8-12,87,70,58,68,62,54,100,81,52,29.68,29.59,22,4,34,0.00
2013-8-13,92,69,61,73,65,61,100,90,48,29.59,29.38,12,0,26,0.98
2013-8-14,82,65,56,74,59,50,100,84,52,29.65,29.38,19,2,26,0.28
2013-8-15,57,56,55,57,56,54,100,100,100,29.65,29.65,12,6,21,0.00
2013-8-17,86,66,0,67,57,0,100,76,44,30.06,29.94,12,2,21,0.00
2013-8-18,87,70,54,68,61,54,100,78,52,29.97,29.74,18,4,38,0.00
2013-8-19,91,72,61,69,65,59,100,80,48,29.74,29.65,16,6,32,0.00
2013-8-20,90,74,0,76,67,0,100,80,48,29.77,29.68,19,6,35,0.00
2013-8-21,93,77,65,74,69,65,100,80,48,29.80,29.65,16,6,26,0.00
2013-8-22,80,71,65,79,71,65,100,100,100,29.65,29.50,14,4,20,0.35
2013-8-23,89,69,52,69,60,51,100,77,44,29.91,29.62,9,0,17,0.00
2013-8-24,84,64,48,66,56,47,100,79,44,30.06,29.91,13,2,22,0.00
2013-8-25,84,66,50,68,59,50,100,81,56,30.06,29.80,16,3,26,0.08
2013-8-26,82,71,62,77,70,62,100,97,80,29.80,29.59,13,3,21,0.08
2013-8-27,91,75,66,80,71,64,100,90,48,29.65,29.59,12,1,17,0.00
2013-8-28,96,76,64,84,71,64,100,87,44,29.74,29.59,9,1,13,0.00
2013-8-29,84,69,61,71,66,61,100,91,56,29.80,29.71,8,1,15,0.00
2013-8-30,83,69,60,76,68,60,100,98,76,29.74,29.47,16,2,23,0.24
2013-8-31,90,73,67,79,70,63,100,92,52,29.53,29.44,9,0,14,0.00
2013-9-1,93,74,62,74,66,60,100,80,48,29.62,29.53,9,1,15,0.00
2013-9-2,74,65,61,74,65,61,100,100,100,29.59,29.38,7,1,13,0.35
2013-9-3,77,67,62,71,66,59,100,97,60,29.47,29.38,19,5,27,0.04
2013-9-4,75,61,49,67,59,49,100,94,56,29.68,29.47,19,6,31,0.00
2013-9-5,73,56,41,61,50,41,100,82,56,29.88,29.65,26,2,34,0.00
2013-9-6,73,56,39,58,48,39,100,78,56,29.94,29.71,26,6,45,0.00
2013-9-7,72,63,57,66,61,55,100,93,64,29.71,29.53,23,8,36,0.00
2013-9-8,78,59,43,62,51,42,100,79,52,29.80,29.50,19,2,27,0.00
2013-9-9,75,56,40,59,50,40,100,83,52,29.85,29.71,19,4,35,0.00
2013-9-10,67,62,55,67,62,55,100,100,100,29.74,29.65,5,0,7,0.16
2013-9-11,89,74,65,84,72,65,100,94,52,29.68,29.59,20,4,33,0.24
2013-9-12,88,72,66,84,72,65,100,99,72,29.62,29.35,13,2,22,0.67
2013-9-13,68,60,53,66,59,53,100,97,68,29.62,29.35,16,1,21,0.00
2013-9-14,69,55,47,60,54,47,100,98,60,29.77,29.59,16,3,26,0.00
2013-9-15,71,57,45,64,56,45,100,96,68,29.80,29.68,17,5,26,0.00
2013-9-16,74,56,38,59,50,38,100,83,52,30.09,29.68,13,1,17,0.39
2013-9-17,50,43,38,50,43,37,100,100,100,30.09,30.00,7,1,12,0.00
2013-9-18,77,58,45,58,52,44,100,84,52,30.00,29.80,19,4,30,0.00
2013-9-19,83,62,46,65,56,46,100,83,48,29.83,29.74,13,3,25,0.00
2013-9-20,88,69,54,72,62,54,100,80,52,29.77,29.53,12,2,21,0.00
2013-9-21,70,65,57,69,65,57,100,99,88,29.56,29.26,12,2,22,0.91
2013-9-22,67,58,47,64,56,45,100,92,60,29.65,29.23,16,4,29,0.12
2013-9-23,69,50,41,54,46,40,100,86,60,29.80,29.65,17,3,25,0.00
2013-9-24,85,57,42,61,50,42,100,83,44,29.80,29.59,16,3,26,0.00
2013-9-25,82,56,42,64,50,42,100,83,48,29.77,29.65,11,1,16,0.00
2013-9-26,64,48,40,61,47,40,100,98,72,29.91,29.77,5,0,7,0.00
2013-9-27,86,60,46,66,55,46,100,86,44,30.03,29.91,7,0,12,0.00
2013-9-28,86,61,44,67,55,44,100,84,44,30.09,29.94,9,1,13,0.00
2013-9-29,84,61,44,66,55,44,100,83,48,29.94,29.74,12,1,18,0.00
2013-9-30,88,62,47,74,56,47,100,84,48,29.80,29.68,8,1,15,0.00
2013-10-1,82,61,52,68,58,52,100,91,56,29.68,29.62,12,1,17,0.00
2013-10-3,58,57,56,58,57,56,100,100,100,29.77,29.74,0,0,0,0.00
2013-10-4,74,58,51,58,54,48,100,86,56,29.85,29.74,9,1,13,0.00
2013-10-5,79,57,49,59,51,43,100,82,52,29.91,29.83,9,1,12,0.00
2013-10-6,67,53,42,57,48,39,100,87,60,29.91,29.59,14,2,21,0.24
2013-10-7,80,63,55,72,61,55,100,95,60,29.59,29.21,26,6,44,0.43
2013-10-8,69,52,38,55,47,38,100,86,60,30.06,29.47,28,7,46,0.00
2013-10-9,76,52,34,59,46,34,100,84,52,30.15,30.00,12,1,17,0.00
2013-10-10,52,44,38,52,44,38,100,100,100,30.00,29.88,0,0,0,0.00
2013-10-11,90,59,40,69,52,40,100,83,44,29.91,29.85,8,1,12,0.00
2013-10-12,81,61,49,65,55,49,100,84,48,30.03,29.91,9,2,15,0.00
2013-10-13,82,60,48,65,54,48,100,87,48,30.09,29.94,7,1,15,0.00
2013-10-14,81,64,56,74,63,56,100,98,60,29.97,29.88,9,1,12,0.20
2013-10-15,70,56,50,63,56,50,100,99,80,30.00,29.83,9,1,12,0.00
2013-10-16,60,60,60,60,60,59,100,100,100,29.47,29.44,5,0,11,0.12
2013-10-17,69,59,50,63,57,49,100,93,60,29.47,29.38,28,6,38,0.24
2013-10-18,65,56,48,65,55,48,100,98,76,29.50,29.35,26,6,46,0.20
2013-10-19,64,52,42,60,52,42,100,98,72,29.56,29.29,11,2,17,0.04
2013-10-20,57,48,33,52,45,33,100,90,68,29.65,29.23,30,9,49,0.20
2013-10-21,62,43,31,56,43,31,100,100,76,29.74,29.47,9,1,12,0.04
2013-10-22,58,49,37,55,47,34,100,92,68,29.47,29.35,30,6,50,0.24
2013-10-23,58,41,31,47,38,31,100,91,68,29.47,29.35,16,5,26,0.00
2013-10-24,46,37,26,41,36,26,100,95,80,30.33,29.41,27,8,44,0.00
2013-10-25,49,38,28,41,36,28,100,92,76,30.98,30.21,22,7,30,0.00
2013-10-26,44,38,27,44,38,27,100,100,100,31.01,30.33,20,4,30,0.31
2013-10-27,50,43,32,48,41,32,100,94,76,31.01,30.33,25,7,34,0.00
2013-10-28,51,38,23,46,36,23,100,93,72,31.01,31.01,23,5,36,0.04
2013-10-29,50,30,18,42,28,18,100,92,72,31.01,31.01,16,2,22,0.00
2013-10-30,50,33,21,43,32,21,100,94,76,31.01,31.01,25,3,34,0.00
2013-10-31,59,40,26,59,40,26,100,100,100,31.01,31.01,12,2,21,0.71
2013-11-1,71,59,46,69,56,43,100,90,68,31.01,20.29,45,12,75,0.98
2013-11-2,48,42,29,46,40,24,100,92,76,31.01,20.11,16,4,22,0.00
2013-11-3,52,31,19,44,28,19,100,88,68,17.72,17.72,11,2,17,0.00
2013-11-4,54,30,15,45,28,15,100,91,64,17.72,17.72,9,1,14,0.00
2013-11-5,57,38,26,47,35,26,100,90,68,17.72,17.72,11,1,20,0.00
2013-11-6,66,48,32,56,45,32,100,92,60,17.72,17.72,12,2,22,0.08
2013-11-7,59,47,36,59,44,33,100,91,76,17.72,17.72,26,10,44,0.12
2013-11-8,44,36,32,38,34,31,100,93,80,17.72,17.72,26,10,37,0.00
2013-11-9,45,35,29,39,33,28,100,90,76,17.72,17.72,22,4,30,0.00
2013-11-10,41,38,34,41,38,34,100,100,100,17.72,17.72,12,1,21,0.28
2013-11-11,43,36,26,41,35,22,100,97,84,17.72,17.72,22,7,34,0.20
2013-11-12,34,27,21,28,24,21,100,90,80,17.72,17.72,26,4,36,0.00
2013-11-13,21,19,16,21,19,16,100,100,100,17.72,17.72,12,5,21,0.00
2013-11-14,35,34,32,35,34,32,100,100,100,29.68,17.72,5,1,10,0.00
2013-11-15,57,42,30,46,38,30,100,87,68,29.83,29.68,19,3,26,0.00
2013-11-16,63,42,32,51,39,31,100,90,64,29.97,29.83,12,1,17,0.00
2013-11-17,59,44,31,58,44,31,100,100,100,29.91,29.23,19,5,32,0.39
2013-11-18,60,50,34,60,48,31,100,93,72,29.29,29.00,36,13,58,0.47
2013-11-19,38,32,25,32,27,21,92,82,76,30.06,29.29,30,11,51,0.00
2013-11-20,50,28,17,43,25,16,100,90,64,30.36,30.06,9,1,17,0.00
2013-11-21,44,29,17,38,28,17,100,97,80,30.33,30.03,11,1,14,0.00
2013-11-22,41,35,32,40,35,32,100,100,100,30.03,29.47,19,1,31,0.20
2013-11-23,37,28,20,37,26,17,100,92,84,29.68,29.50,20,2,35,0.00
2013-11-24,22,17,9,19,15,8,96,92,88,29.94,29.59,36,13,55,0.00
2013-11-25,29,17,6,29,15,5,100,93,80,30.06,29.77,19,6,30,0.00
2013-11-26,38,34,28,35,33,28,100,96,84,29.88,29.65,16,6,26,0.00
2013-11-27,40,36,28,40,36,28,100,100,100,29.68,29.09,20,4,32,0.00
2013-11-28,28,19,9,28,17,9,100,94,88,30.12,29.21,26,10,41,0.00
2013-11-29,32,11,-3,25,10,-3,100,97,80,30.47,30.12,16,3,21,0.00
2013-11-30,18,8,-6,16,8,-6,100,100,92,30.50,29.97,11,3,16,0.00
2013-12-1,29,24,16,29,24,16,100,100,100,29.97,29.80,9,4,15,0.00
2013-12-2,36,32,29,36,32,29,100,100,100,29.80,29.62,11,5,22,0.00
2013-12-3,38,35,32,38,35,32,100,100,100,29.71,29.65,12,1,16,0.00
2013-12-4,44,33,21,40,32,21,100,97,80,29.88,29.71,11,0,17,0.00
2013-12-5,46,36,30,46,36,30,100,100,100,29.85,29.44,22,5,34,0.00
2013-12-6,41,35,28,41,32,23,100,88,72,29.85,29.56,26,9,36,0.00
2013-12-7,32,22,12,26,19,11,96,88,80,30.18,29.85,25,6,39,0.00
2013-12-8,36,18,4,29,15,3,100,92,80,30.30,30.18,12,2,16,0.00
2013-12-9,34,31,24,34,28,21,100,89,80,29.56,29.47,38,14,52,0.00
2013-12-10,32,22,7,27,19,6,100,90,80,29.62,29.47,38,8,51,0.00
2013-12-11,24,13,3,21,11,2,100,94,88,29.91,29.59,26,6,35,0.00
2013-12-12,16,3,-13,14,2,-14,96,96,92,30.00,29.56,15,2,25,0.00
2013-12-13,14,4,-16,12,3,-17,96,96,96,30.21,29.53,20,6,34,0.00
2013-12-14,4,-8,-22,3,-9,-23,96,96,96,30.39,29.94,16,4,22,0.00
2013-12-15,12,6,-1,10,6,-2,96,96,96,29.94,29.32,18,6,26,0.00
2013-12-16,8,-1,-14,7,-2,-14,96,96,96,29.97,29.38,22,7,31,0.00
2013-12-17,5,-7,-25,4,-8,-26,96,96,96,29.97,29.74,13,4,17,0.00
2013-12-18,30,12,4,24,11,3,100,96,80,29.74,29.62,19,2,26,0.00
2013-12-19,29,22,14,29,22,14,100,99,84,29.77,29.56,9,1,12,0.00
2013-12-20,27,20,15,27,20,15,100,100,100,29.80,29.65,15,6,25,0.00
2013-12-21,20,18,16,20,18,16,100,100,100,29.80,29.56,13,6,21,0.00
2013-12-22,19,17,15,19,17,15,100,100,100,29.80,29.50,26,10,38,0.00
2013-12-23,25,20,12,25,20,12,100,100,100,29.91,29.71,16,3,24,0.00
2013-12-24,29,8,-2,24,7,-2,100,97,84,30.06,29.88,15,5,20,0.00
2013-12-25,15,0,-11,14,0,-12,96,96,96,30.27,30.06,15,4,20,0.00
2013-12-26,19,9,1,16,8,0,100,96,92,30.09,29.83,12,4,18,0.00
2013-12-27,32,18,9,26,17,8,100,97,80,29.88,29.77,13,3,22,0.00
2013-12-28,37,29,8,37,29,8,100,100,100,29.80,29.59,20,3,26,0.00
2013-12-29,36,18,11,36,18,11,100,100,100,29.71,29.32,12,0,17,0.00
2013-12-30,15,5,-8,15,5,-9,100,100,100,29.97,29.29,0,0,0,0.00
2013-12-31,5,-4,-10,5,-4,-10,100,100,100,29.94,29.74,0,0,0,0.00
2014-1-1,7,-6,-20,7,-6,-20,100,100,100,30.27,29.83,0,0,0,0.00
2014-1-2,-10,-16,-22,-10,-16,-22,100,100,100,30.27,29.91,0,0,0,0.00